createdAt,value
2023-02-02T00:01:36.994Z,10.40
2023-02-02T00:04:05.371Z,11.33
2023-02-02T00:06:34.417Z,12.70
2023-02-02T00:09:03.663Z,14.13
2023-02-02T00:11:31.891Z,13.37
2023-02-02T00:14:00.998Z,12.27
2023-02-02T00:16:42.208Z,12.17
2023-02-02T00:19:14.555Z,15.57
2023-02-02T00:21:43.394Z,14.33
2023-02-02T00:24:13.652Z,15.80
2023-02-02T00:26:43.544Z,14.23
2023-02-02T00:29:19.078Z,13.50
2023-02-02T00:31:48.771Z,14.10
2023-02-02T00:34:17.947Z,14.83
2023-02-02T00:36:46.626Z,14.77
2023-02-02T00:39:18.626Z,13.33
2023-02-02T00:41:46.969Z,12.53
2023-02-02T00:44:32.760Z,12.23
2023-02-02T00:47:02.392Z,13.30
2023-02-02T00:49:30.551Z,13.50
2023-02-02T00:51:59.178Z,13.23
2023-02-02T00:54:27.311Z,15.60
2023-02-02T00:56:55.240Z,15.77
2023-02-02T00:59:23.215Z,15.47
2023-02-02T01:01:51.417Z,14.23
2023-02-02T01:04:20.781Z,13.43
2023-02-02T01:06:48.738Z,11.73
2023-02-02T01:09:16.692Z,9.83
2023-02-02T01:11:44.609Z,9.67
2023-02-02T01:14:12.583Z,10.37
2023-02-02T01:16:40.771Z,12.00
2023-02-02T01:19:09.249Z,12.07
2023-02-02T01:21:38.716Z,12.67
2023-02-02T01:24:07.512Z,12.90
2023-02-02T01:26:35.731Z,13.23
2023-02-02T01:29:03.674Z,12.73
2023-02-02T01:31:31.948Z,14.53
2023-02-02T01:34:00.031Z,14.10
2023-02-02T01:36:28.222Z,13.80
2023-02-02T01:38:57.761Z,13.07
2023-02-02T01:41:27.346Z,12.60
2023-02-02T01:43:59.245Z,11.23
2023-02-02T01:46:29.576Z,10.93
2023-02-02T01:49:03.691Z,11.43
2023-02-02T01:51:37.663Z,10.17
2023-02-02T01:54:12.664Z,10.93
2023-02-02T01:56:46.955Z,10.57
2023-02-02T01:59:17.598Z,10.93
2023-02-02T02:01:47.969Z,11.57
2023-02-02T02:04:16.684Z,11.50
2023-02-02T02:06:45.466Z,10.90
2023-02-02T02:09:15.223Z,10.97
2023-02-02T02:11:43.141Z,12.23
2023-02-02T02:14:30.422Z,10.77
2023-02-02T02:17:19.608Z,10.43
2023-02-02T02:20:42.726Z,10.43
2023-02-02T02:24:34.545Z,10.47
2023-02-02T02:27:28.785Z,10.10
2023-02-02T02:30:38.580Z,9.33
2023-02-02T02:33:12.379Z,9.70
2023-02-02T02:35:48.836Z,8.63
2023-02-02T02:38:27.289Z,9.07
2023-02-02T02:41:01.256Z,9.30
2023-02-02T02:43:34.100Z,8.90
2023-02-02T02:46:02.877Z,8.60
2023-02-02T02:48:32.337Z,8.30
2023-02-02T02:51:08.117Z,8.40
2023-02-02T02:53:38.018Z,8.03
2023-02-02T02:56:16.384Z,7.87
2023-02-02T02:58:51.316Z,8.33
2023-02-02T03:01:28.161Z,8.70
2023-02-02T03:04:09.527Z,8.43
2023-02-02T03:06:45.583Z,8.37
2023-02-02T03:09:16.920Z,7.77
2023-02-02T03:11:45.261Z,7.37
2023-02-02T03:14:13.339Z,7.23
2023-02-02T03:16:41.562Z,7.73
2023-02-02T03:19:11.047Z,8.13
2023-02-02T03:21:38.992Z,6.60
2023-02-02T03:24:07.661Z,7.43
2023-02-02T03:26:36.368Z,7.40
2023-02-02T03:29:04.631Z,7.60
2023-02-02T03:31:32.702Z,7.03
2023-02-02T03:34:00.781Z,7.10
2023-02-02T03:36:30.242Z,7.80
2023-02-02T03:38:58.346Z,6.93
2023-02-02T03:41:26.446Z,7.53
2023-02-02T03:43:54.355Z,7.03
2023-02-02T03:46:22.422Z,6.97
2023-02-02T03:48:50.365Z,7.90
2023-02-02T03:51:18.355Z,7.30
2023-02-02T03:53:48.300Z,7.77
2023-02-02T03:56:16.950Z,7.10
2023-02-02T03:58:46.453Z,7.10
2023-02-02T04:01:15.737Z,7.67
2023-02-02T04:03:46.406Z,7.50
2023-02-02T04:06:14.418Z,7.37
2023-02-02T04:08:42.430Z,7.00
2023-02-02T04:11:12.662Z,7.93
2023-02-02T04:13:43.391Z,6.97
2023-02-02T04:16:12.946Z,7.00
2023-02-02T04:18:41.476Z,7.20
2023-02-02T04:21:09.733Z,6.80
2023-02-02T04:23:38.042Z,7.37
2023-02-02T04:26:06.562Z,6.90
2023-02-02T04:28:36.109Z,7.10
2023-02-02T04:31:04.176Z,6.73
2023-02-02T04:33:32.239Z,7.13
2023-02-02T04:36:00.262Z,7.00
2023-02-02T04:38:28.413Z,7.13
2023-02-02T04:40:56.637Z,7.53
2023-02-02T04:43:24.582Z,7.70
2023-02-02T04:45:58.244Z,7.20
2023-02-02T04:48:26.498Z,7.37
2023-02-02T04:51:00.328Z,7.77
2023-02-02T04:53:29.124Z,7.00
2023-02-02T04:55:57.194Z,6.77
2023-02-02T04:58:25.537Z,8.47
2023-02-02T05:00:53.583Z,7.57
2023-02-02T05:03:22.938Z,7.60
2023-02-02T05:05:51.070Z,7.60
2023-02-02T05:08:19.125Z,7.07
2023-02-02T05:10:47.201Z,7.63
2023-02-02T05:13:15.207Z,7.03
2023-02-02T05:15:43.372Z,7.57
2023-02-02T05:18:11.307Z,7.77
2023-02-02T05:20:40.568Z,7.33
2023-02-02T05:23:08.591Z,7.80
2023-02-02T05:25:36.661Z,7.63
2023-02-02T05:28:04.627Z,7.40
2023-02-02T05:30:33.696Z,6.93
2023-02-02T05:33:01.852Z,7.60
2023-02-02T05:35:29.894Z,7.63
2023-02-02T05:37:59.422Z,7.20
2023-02-02T05:40:27.517Z,7.37
2023-02-02T05:42:55.460Z,7.87
2023-02-02T05:45:23.959Z,8.33
2023-02-02T05:47:55.612Z,8.73
2023-02-02T05:50:24.132Z,7.83
2023-02-02T05:52:52.464Z,8.33
2023-02-02T05:55:21.970Z,7.43
2023-02-02T05:57:50.285Z,8.50
2023-02-02T06:00:19.247Z,8.40
2023-02-02T06:02:47.187Z,8.47
2023-02-02T06:05:15.281Z,8.80
2023-02-02T06:07:43.288Z,9.23
2023-02-02T06:10:11.841Z,9.27
2023-02-02T06:12:41.136Z,8.70
2023-02-02T06:15:10.087Z,8.13
2023-02-02T06:17:38.085Z,8.80
2023-02-02T06:20:07.129Z,8.13
2023-02-02T06:22:35.060Z,8.90
2023-02-02T06:25:04.420Z,8.07
2023-02-02T06:27:33.402Z,8.10
2023-02-02T06:30:02.745Z,7.53
2023-02-02T06:32:31.078Z,7.70
2023-02-02T06:34:59.142Z,7.37
2023-02-02T06:37:29.612Z,7.83
2023-02-02T06:39:58.886Z,6.97
2023-02-02T06:42:27.056Z,7.60
2023-02-02T06:44:54.972Z,8.30
2023-02-02T06:47:26.027Z,8.43
2023-02-02T06:49:54.905Z,8.77
2023-02-02T06:52:22.857Z,7.80
2023-02-02T06:54:51.805Z,7.70
2023-02-02T06:57:19.742Z,7.87
2023-02-02T06:59:47.673Z,7.63
2023-02-02T07:02:15.728Z,7.20
2023-02-02T07:04:45.182Z,7.87
2023-02-02T07:07:13.101Z,7.77
2023-02-02T07:09:41.064Z,25.17
2023-02-02T07:12:09.153Z,7.87
2023-02-02T07:14:37.953Z,7.67
2023-02-02T07:17:06.112Z,7.80
2023-02-02T07:19:34.300Z,7.80
2023-02-02T07:22:04.114Z,7.80
2023-02-02T07:24:32.884Z,8.77
2023-02-02T07:27:01.082Z,7.43
2023-02-02T07:29:29.214Z,8.20
2023-02-02T07:31:57.335Z,9.70
2023-02-02T07:34:26.013Z,8.10
2023-02-02T07:36:54.067Z,8.33
2023-02-02T07:39:23.491Z,10.33
2023-02-02T07:41:51.431Z,11.00
2023-02-02T07:44:19.404Z,9.50
2023-02-02T07:46:48.447Z,9.70
2023-02-02T07:49:18.740Z,9.13
2023-02-02T07:51:49.230Z,11.00
2023-02-02T07:54:17.292Z,8.90
2023-02-02T07:56:46.712Z,8.00
2023-02-02T07:59:14.705Z,8.33
2023-02-02T08:01:42.963Z,8.50
2023-02-02T08:04:11.244Z,9.13
2023-02-02T08:06:40.693Z,9.13
2023-02-02T08:09:10.214Z,7.33
2023-02-02T08:11:39.301Z,7.60
2023-02-02T08:14:08.775Z,8.10
2023-02-02T08:16:36.835Z,8.20
2023-02-02T08:19:04.835Z,8.57
2023-02-02T08:21:34.911Z,8.20
2023-02-02T08:24:04.644Z,8.17
2023-02-02T08:26:33.143Z,8.60
2023-02-02T08:29:03.736Z,7.90
2023-02-02T08:31:35.033Z,7.43
2023-02-02T08:34:03.381Z,8.27
2023-02-02T08:36:35.472Z,7.10
2023-02-02T08:39:05.602Z,7.80
2023-02-02T08:41:34.205Z,7.70
2023-02-02T08:44:02.378Z,7.37
2023-02-02T08:46:30.315Z,7.53
2023-02-02T08:49:00.150Z,6.53
2023-02-02T08:51:28.188Z,7.20
2023-02-02T08:53:56.136Z,6.30
2023-02-02T08:56:24.722Z,6.67
2023-02-02T08:58:55.222Z,8.00
2023-02-02T09:01:25.059Z,7.33
2023-02-02T09:03:54.955Z,7.87
2023-02-02T09:06:29.490Z,7.83
2023-02-02T09:08:57.534Z,8.37
2023-02-02T09:11:25.816Z,8.43
2023-02-02T09:13:56.255Z,8.50
2023-02-02T09:16:25.025Z,8.50
2023-02-02T09:18:53.075Z,10.13
2023-02-02T09:21:21.126Z,9.13
2023-02-02T09:23:53.733Z,9.00
2023-02-02T09:26:24.289Z,8.77
2023-02-02T09:28:54.436Z,9.20
2023-02-02T09:31:23.203Z,9.33
2023-02-02T09:33:51.284Z,8.70
2023-02-02T09:36:21.352Z,8.73
2023-02-02T09:38:51.525Z,9.10
2023-02-02T09:41:54.295Z,8.63
2023-02-02T09:44:36.278Z,8.60
2023-02-02T09:47:17.637Z,8.03
2023-02-02T09:49:59.018Z,7.77
2023-02-02T09:52:30.951Z,7.87
2023-02-02T09:55:04.445Z,7.43
2023-02-02T09:57:38.932Z,7.97
2023-02-02T10:00:17.372Z,8.07
2023-02-02T10:02:47.273Z,7.60
2023-02-02T10:05:21.002Z,7.43
2023-02-02T10:07:54.295Z,7.87
2023-02-02T10:10:27.524Z,7.30
2023-02-02T10:12:58.863Z,7.10
2023-02-02T10:15:38.903Z,7.30
2023-02-02T10:18:16.453Z,6.73
2023-02-02T10:20:48.659Z,7.13
2023-02-02T10:23:23.997Z,6.40
2023-02-02T10:25:58.450Z,6.27
2023-02-02T10:28:42.306Z,6.30
2023-02-02T10:31:21.064Z,5.93
2023-02-02T10:34:02.447Z,5.60
2023-02-02T10:36:43.655Z,6.67
2023-02-02T10:39:22.228Z,6.00
2023-02-02T10:42:01.481Z,5.83
2023-02-02T10:44:38.660Z,6.27
2023-02-02T10:47:11.999Z,6.40
2023-02-02T10:49:41.993Z,5.97
2023-02-02T10:52:17.417Z,6.30
2023-02-02T10:54:58.714Z,4.43
2023-02-02T10:57:52.523Z,5.17
2023-02-02T11:00:24.190Z,4.93
2023-02-02T11:02:53.775Z,4.77
2023-02-02T11:05:42.724Z,3.80
2023-02-02T11:08:20.196Z,3.40
2023-02-02T11:10:50.903Z,3.47
2023-02-02T11:13:29.172Z,3.23
2023-02-02T11:16:21.355Z,2.90
2023-02-02T11:18:49.899Z,3.30
2023-02-02T11:21:23.929Z,2.90
2023-02-02T11:24:02.438Z,3.47
2023-02-02T11:26:44.165Z,3.13
2023-02-02T11:29:17.521Z,4.60
2023-02-02T11:31:48.495Z,3.03
2023-02-02T11:34:20.693Z,2.80
2023-02-02T11:37:14.280Z,3.30
2023-02-02T11:39:42.687Z,3.53
2023-02-02T11:42:17.293Z,3.83
2023-02-02T11:44:50.183Z,3.00
2023-02-02T11:47:26.017Z,3.80
2023-02-02T11:49:58.700Z,3.90
2023-02-02T11:52:32.324Z,5.00
2023-02-02T11:55:02.470Z,3.30
2023-02-02T11:57:30.716Z,4.40
2023-02-02T12:00:19.209Z,5.53
2023-02-02T12:02:49.043Z,3.43
2023-02-02T12:05:36.973Z,2.60
2023-02-02T12:08:05.870Z,2.80
2023-02-02T12:10:41.266Z,2.97
2023-02-02T12:13:15.914Z,2.93
2023-02-02T12:15:52.958Z,3.50
2023-02-02T12:18:42.049Z,3.03
2023-02-02T12:21:19.657Z,3.80
2023-02-02T12:24:04.579Z,4.20
2023-02-02T12:26:35.603Z,3.40
2023-02-02T12:29:19.846Z,3.97
2023-02-02T12:32:01.182Z,3.10
2023-02-02T12:34:38.709Z,3.60
2023-02-02T12:37:18.771Z,3.87
2023-02-02T12:39:58.375Z,5.17
2023-02-02T12:42:41.128Z,2.70
2023-02-02T12:45:26.478Z,3.07
2023-02-02T12:48:11.669Z,2.83
2023-02-02T12:50:50.154Z,2.87
2023-02-02T12:53:34.567Z,3.00
2023-02-02T12:56:10.403Z,3.00
2023-02-02T12:58:44.391Z,3.10
2023-02-02T13:01:38.854Z,3.17
2023-02-02T13:07:32.088Z,2.83
2023-02-02T13:10:08.497Z,2.97
2023-02-02T13:12:41.006Z,2.53
2023-02-02T13:15:13.746Z,3.20
2023-02-02T13:17:47.901Z,3.00
2023-02-02T13:20:25.265Z,3.30
2023-02-02T13:22:56.282Z,4.03
2023-02-02T13:25:29.298Z,3.40
2023-02-02T13:28:00.084Z,2.83
2023-02-02T13:30:32.572Z,3.33
2023-02-02T13:33:05.202Z,2.93
2023-02-02T13:35:40.438Z,2.83
2023-02-02T13:38:17.468Z,4.30
2023-02-02T13:40:45.808Z,2.87
2023-02-02T13:43:27.302Z,2.93
2023-02-02T13:46:11.968Z,2.83
2023-02-02T13:48:51.749Z,2.80
2023-02-02T13:51:55.009Z,3.73
2023-02-02T13:55:04.593Z,3.27
2023-02-02T13:58:07.010Z,2.90
2023-02-02T14:00:38.854Z,3.37
2023-02-02T14:03:23.744Z,2.50
2023-02-02T14:06:05.727Z,2.80
2023-02-02T14:08:35.778Z,3.13
2023-02-02T14:11:06.248Z,3.60
2023-02-02T14:14:02.278Z,2.40
2023-02-02T14:16:47.060Z,2.70
2023-02-02T14:19:40.787Z,2.97
2023-02-02T14:22:21.406Z,2.50
2023-02-02T14:24:53.608Z,2.47
2023-02-02T14:27:57.833Z,2.50
2023-02-02T14:30:33.628Z,2.20
2023-02-02T14:33:25.902Z,2.40
2023-02-02T14:36:02.663Z,2.50
2023-02-02T14:38:52.851Z,2.50
2023-02-02T14:41:48.689Z,2.30
2023-02-02T14:44:17.190Z,2.60
2023-02-02T14:46:49.142Z,2.47
2023-02-02T14:49:25.911Z,2.50
2023-02-02T14:51:58.174Z,2.90
2023-02-02T14:54:31.725Z,3.60
2023-02-02T14:57:03.962Z,2.70
2023-02-02T14:59:36.074Z,2.27
2023-02-02T15:02:15.442Z,2.60
2023-02-02T15:04:44.052Z,2.83
2023-02-02T15:07:52.918Z,2.43
2023-02-02T15:10:58.066Z,2.50
2023-02-02T15:13:30.351Z,2.60
2023-02-02T15:16:07.571Z,2.40
2023-02-02T15:18:44.487Z,2.50
2023-02-02T15:21:18.481Z,2.50
2023-02-02T15:23:48.286Z,2.60
2023-02-02T15:26:20.800Z,2.33
2023-02-02T15:28:55.403Z,2.63
2023-02-02T15:31:30.909Z,2.67
2023-02-02T15:34:06.142Z,2.93
2023-02-02T15:36:38.754Z,2.83
2023-02-02T15:39:14.742Z,2.90
2023-02-02T15:41:44.907Z,2.70
2023-02-02T15:44:21.700Z,3.10
2023-02-02T15:46:50.657Z,2.97
2023-02-02T15:49:35.050Z,2.53
2023-02-02T15:52:14.739Z,3.20
2023-02-02T15:54:52.743Z,3.00
2023-02-02T15:57:40.549Z,2.53
2023-02-02T16:03:08.876Z,2.50
2023-02-02T16:05:44.543Z,2.83
2023-02-02T16:08:18.985Z,2.60
2023-02-02T16:10:48.138Z,3.07
2023-02-02T16:13:34.094Z,2.97
2023-02-02T16:16:03.924Z,2.40
2023-02-02T16:18:33.831Z,3.20
2023-02-02T16:21:08.301Z,3.10
2023-02-02T16:23:38.241Z,3.03
2023-02-02T16:26:07.953Z,2.90
2023-02-02T16:28:36.494Z,3.00
2023-02-02T16:31:05.596Z,3.37
2023-02-02T16:33:41.844Z,3.30
2023-02-02T16:36:25.614Z,2.70
2023-02-02T16:38:54.812Z,2.80
2023-02-02T16:41:28.001Z,2.83
2023-02-02T16:43:56.138Z,3.40
2023-02-02T16:46:45.683Z,3.43
2023-02-02T16:49:23.021Z,3.77
2023-02-02T16:52:10.651Z,17.40
2023-02-02T16:54:40.072Z,6.70
2023-02-02T16:57:07.965Z,13.83
2023-02-02T16:59:37.847Z,15.63
2023-02-02T17:02:21.034Z,10.20
2023-02-02T17:04:55.539Z,8.70
2023-02-02T17:07:24.192Z,7.00
2023-02-02T17:10:13.469Z,4.80
2023-02-02T17:12:41.331Z,4.97
2023-02-02T17:15:29.998Z,4.40
2023-02-02T17:17:58.855Z,4.07
2023-02-02T17:20:32.478Z,5.93
2023-02-02T17:23:03.485Z,10.07
2023-02-02T17:25:35.673Z,13.87
2023-02-02T17:28:04.842Z,35.60
2023-02-02T17:30:32.769Z,22.57
2023-02-02T17:33:00.642Z,30.73
2023-02-02T17:35:40.051Z,16.33
2023-02-02T17:38:17.475Z,7.33
2023-02-02T17:40:48.701Z,9.83
2023-02-02T17:43:17.636Z,9.33
2023-02-02T17:45:45.671Z,15.57
2023-02-02T17:48:15.123Z,11.57
2023-02-02T17:50:44.975Z,38.50
2023-02-02T17:53:15.301Z,9.20
2023-02-02T17:55:44.591Z,46.97
2023-02-02T17:58:17.103Z,19.07
2023-02-02T18:00:46.824Z,12.40
2023-02-02T18:03:19.207Z,10.63
2023-02-02T18:05:48.989Z,10.00
2023-02-02T18:08:17.026Z,12.37
2023-02-02T18:10:45.185Z,9.87
2023-02-02T18:13:19.247Z,10.63
2023-02-02T18:15:47.733Z,29.30
2023-02-02T18:18:15.898Z,27.87
2023-02-02T18:20:44.434Z,38.17
2023-02-02T18:23:14.041Z,40.63
2023-02-02T18:25:42.431Z,65.90
2023-02-02T18:28:11.102Z,62.83
2023-02-02T18:30:39.221Z,40.23
2023-02-02T18:33:09.177Z,34.63
2023-02-02T18:35:37.417Z,69.63
2023-02-02T18:38:05.401Z,40.13
2023-02-02T18:40:34.876Z,23.00
2023-02-02T18:43:02.814Z,51.00
2023-02-02T18:45:31.121Z,32.13
2023-02-02T18:47:58.989Z,26.97
2023-02-02T18:50:27.019Z,14.53
2023-02-02T18:52:56.991Z,24.27
2023-02-02T18:55:27.610Z,46.23
2023-02-02T18:57:57.228Z,26.07
2023-02-02T19:00:28.286Z,55.97
2023-02-02T19:02:56.137Z,23.60
2023-02-02T19:05:41.246Z,22.77
2023-02-02T19:08:09.365Z,19.27
2023-02-02T19:10:39.069Z,32.00
2023-02-02T19:13:18.044Z,36.90
2023-02-02T19:15:47.160Z,17.20
2023-02-02T19:18:16.642Z,13.10
2023-02-02T19:20:45.187Z,12.63
2023-02-02T19:23:15.432Z,16.73
2023-02-02T19:25:46.570Z,12.73
2023-02-02T19:28:23.243Z,18.73
2023-02-02T19:30:52.863Z,23.93
2023-02-02T19:33:22.052Z,19.70
2023-02-02T19:35:53.184Z,14.20
2023-02-02T19:38:21.602Z,13.87
2023-02-02T19:40:49.515Z,21.37
2023-02-02T19:43:26.846Z,22.00
2023-02-02T19:45:55.129Z,25.30
2023-02-02T19:48:27.282Z,29.17
2023-02-02T19:50:56.155Z,28.43
2023-02-02T19:53:28.281Z,25.83
2023-02-02T19:55:56.266Z,25.30
2023-02-02T19:58:28.205Z,27.77
2023-02-02T20:00:58.437Z,109.33
2023-02-02T20:03:29.074Z,31.03
2023-02-02T20:05:58.639Z,31.17
2023-02-02T20:08:32.970Z,34.00
2023-02-02T20:11:07.338Z,25.33
2023-02-02T20:13:44.911Z,22.37
2023-02-02T20:16:19.093Z,21.20
2023-02-02T20:18:53.204Z,22.57
2023-02-02T20:21:27.569Z,41.60
2023-02-02T20:23:55.681Z,20.10
2023-02-02T20:26:26.851Z,19.23
2023-02-02T20:28:57.892Z,18.10
2023-02-02T20:31:35.379Z,19.47
2023-02-02T20:34:08.939Z,25.13
2023-02-02T20:36:40.294Z,18.87
2023-02-02T20:39:26.402Z,17.77
2023-02-02T20:41:56.485Z,15.30
2023-02-02T20:44:26.460Z,26.80
2023-02-02T20:46:55.758Z,26.97
2023-02-02T20:49:25.650Z,19.20
2023-02-02T20:51:54.607Z,17.67
2023-02-02T20:54:22.934Z,20.03
2023-02-02T20:56:51.655Z,21.87
2023-02-02T20:59:22.665Z,22.87
2023-02-02T21:01:53.007Z,24.47
2023-02-02T21:04:22.618Z,27.63
2023-02-02T21:06:55.328Z,28.43
2023-02-02T21:09:23.754Z,25.77
2023-02-02T21:11:51.910Z,25.60
2023-02-02T21:14:22.445Z,25.00
2023-02-02T21:16:57.276Z,25.20
2023-02-02T21:19:30.439Z,26.03
2023-02-02T21:21:58.395Z,24.60
2023-02-02T21:24:26.333Z,26.00
2023-02-02T21:26:55.017Z,25.57
2023-02-02T21:29:23.870Z,25.33
2023-02-02T21:31:58.768Z,25.63
2023-02-02T21:34:27.197Z,26.10
2023-02-02T21:36:58.141Z,26.37
2023-02-02T21:39:30.003Z,27.20
2023-02-02T21:42:12.789Z,26.70
2023-02-02T21:44:44.364Z,27.17
2023-02-02T21:47:27.877Z,26.00
2023-02-02T21:49:57.747Z,26.43
2023-02-02T21:52:33.720Z,27.20
2023-02-02T21:55:29.144Z,27.47
2023-02-02T21:57:59.172Z,26.57
2023-02-02T22:00:30.988Z,24.90
2023-02-02T22:03:00.971Z,26.37
2023-02-02T22:05:35.574Z,26.53
2023-02-02T22:08:18.782Z,26.00
2023-02-02T22:10:47.822Z,29.33
2023-02-02T22:13:18.840Z,30.73
2023-02-02T22:15:48.789Z,29.93
2023-02-02T22:18:20.180Z,29.53
2023-02-02T22:20:50.687Z,28.83
2023-02-02T22:23:20.663Z,29.87
2023-02-02T22:25:49.911Z,30.10
2023-02-02T22:28:23.006Z,29.97
2023-02-02T22:30:52.628Z,31.97
2023-02-02T22:33:23.399Z,31.03
2023-02-02T22:35:51.411Z,30.97
2023-02-02T22:38:21.139Z,31.40
2023-02-02T22:40:50.107Z,30.30
2023-02-02T22:43:19.119Z,29.93
2023-02-02T22:45:47.233Z,29.57
2023-02-02T22:48:16.591Z,29.30
2023-02-02T22:50:46.015Z,28.93
2023-02-02T22:53:15.378Z,28.40
2023-02-02T22:55:44.043Z,26.57
2023-02-02T22:58:12.108Z,26.63
2023-02-02T23:00:39.987Z,25.53
2023-02-02T23:03:07.886Z,24.13
2023-02-02T23:05:35.836Z,23.37
2023-02-02T23:08:05.522Z,22.47
2023-02-02T23:10:35.854Z,22.40
2023-02-02T23:13:05.012Z,21.47
2023-02-02T23:15:33.420Z,22.60
2023-02-02T23:18:01.694Z,23.67
2023-02-02T23:20:29.743Z,23.93
2023-02-02T23:22:57.712Z,24.60
2023-02-02T23:25:27.009Z,24.23
2023-02-02T23:27:55.096Z,23.37
2023-02-02T23:30:24.658Z,22.17
2023-02-02T23:32:53.036Z,22.60
2023-02-02T23:35:20.941Z,20.67
2023-02-02T23:37:49.016Z,18.93
2023-02-02T23:40:17.224Z,20.90
2023-02-02T23:42:46.569Z,19.57
2023-02-02T23:45:16.228Z,20.30
2023-02-02T23:47:44.879Z,19.87
2023-02-02T23:50:13.970Z,19.17
2023-02-02T23:52:42.189Z,20.50
2023-02-02T23:55:11.704Z,19.07
2023-02-02T23:57:39.773Z,19.20
